createdAt,value
2023-02-06T00:00:00.145Z,7.95
2023-02-06T00:03:06.624Z,7.30
2023-02-06T00:06:09.514Z,7.43
2023-02-06T00:09:12.256Z,6.85
2023-02-06T00:12:15.114Z,7.60
2023-02-06T00:15:18.256Z,7.57
2023-02-06T00:18:21.087Z,7.00
2023-02-06T00:21:26.243Z,8.07
2023-02-06T00:24:29.042Z,6.95
2023-02-06T00:27:31.850Z,7.78
2023-02-06T00:30:36.147Z,7.20
2023-02-06T00:33:39.175Z,6.83
2023-02-06T00:36:42.019Z,7.45
2023-02-06T00:39:44.800Z,6.65
2023-02-06T00:42:47.644Z,7.45
2023-02-06T00:45:54.581Z,7.68
2023-02-06T00:48:57.759Z,7.67
2023-02-06T00:52:00.842Z,7.63
2023-02-06T00:55:03.780Z,7.30
2023-02-06T00:58:06.729Z,7.47
2023-02-06T01:01:09.788Z,7.25
2023-02-06T01:04:12.846Z,7.83
2023-02-06T01:07:15.584Z,7.75
2023-02-06T01:10:20.307Z,6.38
2023-02-06T01:13:23.439Z,6.75
2023-02-06T01:16:26.283Z,7.35
2023-02-06T01:19:29.471Z,6.70
2023-02-06T01:22:34.934Z,7.07
2023-02-06T01:25:37.982Z,7.70
2023-02-06T01:28:44.024Z,6.95
2023-02-06T01:31:47.053Z,7.20
2023-02-06T01:34:49.926Z,7.70
2023-02-06T01:37:53.507Z,6.80
2023-02-06T01:40:58.021Z,6.82
2023-02-06T01:44:16.872Z,7.53
2023-02-06T01:47:19.740Z,6.85
2023-02-06T01:50:23.984Z,6.97
2023-02-06T01:53:27.175Z,6.93
2023-02-06T01:56:34.348Z,7.10
2023-02-06T01:59:39.793Z,6.38
2023-02-06T02:02:48.518Z,6.30
2023-02-06T02:05:51.811Z,7.17
2023-02-06T02:08:58.313Z,6.18
2023-02-06T02:12:02.187Z,7.88
2023-02-06T02:15:05.537Z,7.13
2023-02-06T02:18:25.380Z,6.15
2023-02-06T02:21:39.896Z,7.03
2023-02-06T02:25:01.065Z,7.10
2023-02-06T02:28:19.872Z,6.80
2023-02-06T02:31:49.632Z,7.30
2023-02-06T02:35:13.149Z,6.72
2023-02-06T02:38:37.101Z,6.30
2023-02-06T02:42:15.368Z,7.53
2023-02-06T02:45:34.227Z,7.25
2023-02-06T02:48:42.296Z,7.18
2023-02-06T02:51:48.226Z,6.90
2023-02-06T02:54:51.104Z,7.00
2023-02-06T02:58:03.818Z,6.60
2023-02-06T03:01:13.576Z,6.30
2023-02-06T03:04:21.266Z,6.68
2023-02-06T03:08:21.615Z,6.15
2023-02-06T03:11:24.778Z,6.17
2023-02-06T03:14:40.846Z,5.93
2023-02-06T03:18:13.323Z,6.82
2023-02-06T03:21:20.182Z,7.10
2023-02-06T03:24:26.311Z,6.60
2023-02-06T03:27:31.399Z,6.63
2023-02-06T03:30:35.499Z,7.28
2023-02-06T03:33:48.626Z,6.45
2023-02-06T03:36:52.322Z,7.00
2023-02-06T03:40:05.465Z,7.10
2023-02-06T03:43:18.901Z,7.50
2023-02-06T03:46:24.772Z,6.22
2023-02-06T03:49:31.944Z,7.10
2023-02-06T03:52:41.456Z,6.80
2023-02-06T03:55:47.519Z,6.50
2023-02-06T03:58:50.381Z,7.03
2023-02-06T04:01:56.735Z,5.78
2023-02-06T04:04:59.486Z,7.43
2023-02-06T04:08:02.273Z,6.35
2023-02-06T04:11:05.055Z,8.00
2023-02-06T04:14:07.880Z,6.63
2023-02-06T04:17:11.537Z,6.78
2023-02-06T04:20:14.843Z,7.88
2023-02-06T04:23:19.877Z,6.95
2023-02-06T04:26:22.635Z,6.10
2023-02-06T04:29:26.144Z,6.47
2023-02-06T04:32:28.996Z,6.30
2023-02-06T04:35:31.767Z,7.10
2023-02-06T04:38:34.576Z,6.20
2023-02-06T04:41:37.313Z,7.00
2023-02-06T04:44:40.118Z,5.80
2023-02-06T04:47:43.076Z,7.35
2023-02-06T04:50:46.628Z,6.75
2023-02-06T04:53:49.459Z,6.82
2023-02-06T04:56:52.351Z,6.57
2023-02-06T04:59:57.847Z,7.87
2023-02-06T05:03:00.898Z,7.72
2023-02-06T05:06:04.791Z,6.70
2023-02-06T05:09:10.520Z,7.75
2023-02-06T05:12:14.390Z,6.75
2023-02-06T05:15:17.994Z,6.37
2023-02-06T05:18:20.824Z,6.63
2023-02-06T05:21:24.682Z,7.53
2023-02-06T05:24:27.944Z,7.25
2023-02-06T05:27:30.834Z,6.78
2023-02-06T05:30:38.122Z,6.27
2023-02-06T05:33:52.596Z,6.22
2023-02-06T05:36:55.469Z,6.60
2023-02-06T05:39:59.960Z,6.68
2023-02-06T05:43:03.212Z,6.60
2023-02-06T05:46:06.093Z,7.77
2023-02-06T05:49:09.145Z,6.03
2023-02-06T05:52:12.100Z,7.40
2023-02-06T05:55:17.070Z,7.25
2023-02-06T05:58:20.140Z,6.30
2023-02-06T06:01:23.056Z,6.67
2023-02-06T06:04:26.523Z,7.38
2023-02-06T06:07:29.284Z,6.32
2023-02-06T06:10:32.275Z,6.68
2023-02-06T06:13:35.171Z,6.88
2023-02-06T06:16:38.249Z,7.30
2023-02-06T06:19:41.049Z,6.63
2023-02-06T06:22:43.903Z,7.78
2023-02-06T06:25:48.118Z,7.70
2023-02-06T06:28:51.155Z,7.55
2023-02-06T06:31:56.995Z,7.27
2023-02-06T06:34:59.959Z,7.05
2023-02-06T06:38:02.801Z,6.30
2023-02-06T06:41:06.596Z,7.10
2023-02-06T06:44:09.872Z,7.82
2023-02-06T06:47:12.603Z,6.17
2023-02-06T06:50:15.750Z,7.18
2023-02-06T06:53:18.921Z,6.97
2023-02-06T06:56:21.710Z,6.47
2023-02-06T06:59:24.605Z,5.72
2023-02-06T07:02:28.757Z,6.97
2023-02-06T07:05:34.519Z,8.05
2023-02-06T07:08:42.151Z,7.18
2023-02-06T07:11:45.383Z,8.15
2023-02-06T07:14:48.204Z,6.25
2023-02-06T07:17:50.992Z,7.27
2023-02-06T07:20:53.786Z,7.07
2023-02-06T07:23:56.639Z,7.93
2023-02-06T07:26:59.423Z,7.45
2023-02-06T07:30:02.321Z,8.98
2023-02-06T07:33:08.756Z,7.37
2023-02-06T07:36:12.992Z,7.53
2023-02-06T07:39:16.824Z,7.90
2023-02-06T07:42:20.101Z,7.30
2023-02-06T07:45:38.913Z,8.93
2023-02-06T07:48:42.666Z,7.17
2023-02-06T07:52:23.684Z,7.55
2023-02-06T07:55:27.111Z,8.77
2023-02-06T07:58:30.008Z,8.90
2023-02-06T08:01:33.847Z,7.13
2023-02-06T08:04:37.532Z,8.13
2023-02-06T08:07:40.708Z,7.13
2023-02-06T08:10:43.728Z,7.82
2023-02-06T08:13:48.204Z,9.30
2023-02-06T08:16:51.731Z,7.20
2023-02-06T08:19:54.717Z,9.53
2023-02-06T08:23:02.279Z,7.35
2023-02-06T08:26:09.590Z,8.80
2023-02-06T08:29:14.560Z,10.70
2023-02-06T08:32:17.397Z,8.98
2023-02-06T08:35:20.304Z,8.83
2023-02-06T08:38:23.064Z,8.02
2023-02-06T08:41:37.917Z,10.55
2023-02-06T08:44:43.652Z,7.90
2023-02-06T08:47:46.659Z,8.38
2023-02-06T08:50:51.238Z,8.70
2023-02-06T08:53:58.751Z,12.82
2023-02-06T08:57:02.931Z,11.70
2023-02-06T09:00:09.096Z,11.68
2023-02-06T09:03:12.677Z,11.02
2023-02-06T09:06:18.510Z,9.40
2023-02-06T09:09:21.417Z,11.45
2023-02-06T09:12:24.815Z,18.08
2023-02-06T09:15:27.990Z,13.38
2023-02-06T09:18:31.164Z,13.88
2023-02-06T09:21:35.768Z,9.57
2023-02-06T09:24:43.680Z,8.63
2023-02-06T09:27:47.398Z,16.70
2023-02-06T09:30:50.973Z,10.85
2023-02-06T09:33:54.307Z,11.90
2023-02-06T09:36:58.045Z,9.60
2023-02-06T09:40:06.006Z,11.88
2023-02-06T09:43:14.316Z,19.17
2023-02-06T09:46:21.479Z,11.02
2023-02-06T09:49:52.820Z,13.52
2023-02-06T09:53:01.840Z,11.37
2023-02-06T09:56:29.257Z,14.88
2023-02-06T09:59:45.248Z,13.52
2023-02-06T10:03:17.282Z,14.55
2023-02-06T10:06:32.173Z,10.48
2023-02-06T10:09:43.388Z,9.77
2023-02-06T10:13:10.277Z,11.32
2023-02-06T10:16:19.023Z,9.02
2023-02-06T10:19:46.891Z,13.10
2023-02-06T10:23:20.160Z,10.05
2023-02-06T10:26:23.604Z,10.17
2023-02-06T10:29:30.291Z,10.82
2023-02-06T10:32:40.444Z,12.93
2023-02-06T10:35:59.121Z,10.68
2023-02-06T10:39:13.702Z,9.00
2023-02-06T10:42:29.219Z,14.90
2023-02-06T10:45:46.904Z,9.52
2023-02-06T10:49:00.970Z,14.35
2023-02-06T10:52:18.170Z,10.77
2023-02-06T10:55:28.266Z,9.90
2023-02-06T10:58:56.416Z,7.53
2023-02-06T11:02:08.236Z,9.27
2023-02-06T11:05:21.103Z,8.35
2023-02-06T11:08:33.075Z,7.00
2023-02-06T11:11:48.606Z,10.73
2023-02-06T11:15:32.908Z,9.53
2023-02-06T11:18:39.919Z,7.15
2023-02-06T11:21:55.524Z,9.75
2023-02-06T11:25:06.185Z,9.90
2023-02-06T11:28:20.853Z,8.82
2023-02-06T11:31:45.639Z,8.77
2023-02-06T11:35:00.135Z,9.70
2023-02-06T11:38:24.971Z,8.70
2023-02-06T11:41:28.984Z,8.35
2023-02-06T11:44:40.282Z,13.18
2023-02-06T11:47:43.034Z,7.77
2023-02-06T11:50:55.125Z,10.55
2023-02-06T11:54:03.773Z,9.07
2023-02-06T11:57:19.891Z,8.40
2023-02-06T12:00:23.533Z,8.07
2023-02-06T12:03:33.431Z,10.00
2023-02-06T12:06:40.479Z,8.00
2023-02-06T12:09:43.541Z,10.10
2023-02-06T12:12:56.544Z,9.38
2023-02-06T12:16:02.223Z,10.18
2023-02-06T12:19:24.148Z,11.33
2023-02-06T12:22:33.484Z,8.50
2023-02-06T12:25:49.623Z,9.93
2023-02-06T12:29:07.205Z,8.50
2023-02-06T12:32:28.752Z,19.45
2023-02-06T12:35:52.270Z,11.80
2023-02-06T12:39:14.925Z,9.00
2023-02-06T12:42:39.196Z,9.23
2023-02-06T12:46:04.526Z,10.15
2023-02-06T12:49:15.898Z,10.70
2023-02-06T12:52:18.790Z,10.30
2023-02-06T12:55:21.794Z,9.70
2023-02-06T12:58:57.358Z,8.82
2023-02-06T13:02:28.169Z,9.52
2023-02-06T13:05:44.305Z,11.38
2023-02-06T13:08:58.959Z,11.00
2023-02-06T13:12:08.165Z,10.07
2023-02-06T13:15:26.170Z,10.23
2023-02-06T13:19:01.356Z,11.55
2023-02-06T13:22:10.897Z,8.75
2023-02-06T13:25:25.969Z,12.80
2023-02-06T13:28:28.952Z,15.50
2023-02-06T13:31:34.606Z,14.85
2023-02-06T13:34:46.970Z,11.05
2023-02-06T13:37:51.086Z,9.15
2023-02-06T13:41:12.824Z,14.70
2023-02-06T13:44:21.429Z,13.00
2023-02-06T13:47:48.203Z,13.25
2023-02-06T13:51:06.671Z,11.15
2023-02-06T13:54:12.011Z,10.38
2023-02-06T13:57:23.672Z,9.57
2023-02-06T14:00:30.536Z,8.00
2023-02-06T14:03:38.538Z,10.85
2023-02-06T14:06:44.137Z,10.30
2023-02-06T14:10:15.672Z,7.85
2023-02-06T14:13:34.416Z,8.53
2023-02-06T14:16:55.552Z,10.05
2023-02-06T14:20:30.364Z,10.73
2023-02-06T14:23:51.208Z,11.95
2023-02-06T14:27:32.182Z,10.13
2023-02-06T14:30:50.934Z,8.83
2023-02-06T14:34:05.736Z,11.52
2023-02-06T14:37:45.300Z,9.55
2023-02-06T14:40:53.871Z,10.27
2023-02-06T14:43:57.907Z,15.95
2023-02-06T14:47:00.872Z,10.00
2023-02-06T14:50:03.878Z,13.65
2023-02-06T14:53:22.571Z,16.33
2023-02-06T14:56:38.376Z,14.38
2023-02-06T14:59:58.481Z,12.48
2023-02-06T15:03:22.583Z,17.03
2023-02-06T15:06:28.357Z,14.65
2023-02-06T15:09:34.437Z,17.55
2023-02-06T15:12:38.527Z,18.60
2023-02-06T15:15:52.946Z,15.50
2023-02-06T15:19:16.358Z,14.27
2023-02-06T15:22:28.521Z,15.23
2023-02-06T15:25:42.167Z,13.10
2023-02-06T15:28:45.802Z,15.80
2023-02-06T15:31:54.837Z,14.35
2023-02-06T15:34:59.730Z,15.83
2023-02-06T15:38:08.383Z,13.73
2023-02-06T15:41:12.207Z,11.73
2023-02-06T15:44:28.459Z,11.50
2023-02-06T15:47:31.505Z,16.48
2023-02-06T15:50:35.277Z,10.70
2023-02-06T15:53:40.109Z,11.75
2023-02-06T15:56:43.813Z,8.85
2023-02-06T15:59:46.834Z,12.63
2023-02-06T16:02:52.683Z,11.25
2023-02-06T16:05:56.732Z,11.87
2023-02-06T16:09:03.046Z,8.60
2023-02-06T16:12:06.202Z,11.82
2023-02-06T16:15:33.893Z,11.75
2023-02-06T16:18:38.963Z,11.07
2023-02-06T16:21:43.653Z,11.70
2023-02-06T16:24:47.197Z,11.85
2023-02-06T16:27:51.454Z,9.85
2023-02-06T16:31:01.907Z,15.68
2023-02-06T16:34:32.186Z,10.07
2023-02-06T16:37:34.947Z,12.20
2023-02-06T16:40:39.049Z,13.60
2023-02-06T16:43:42.332Z,11.07
2023-02-06T16:46:46.617Z,8.90
2023-02-06T16:49:50.045Z,12.98
2023-02-06T16:52:55.670Z,11.07
2023-02-06T16:55:59.469Z,12.35
2023-02-06T16:59:02.330Z,12.02
2023-02-06T17:02:13.735Z,10.98
2023-02-06T17:05:17.073Z,11.50
2023-02-06T17:08:23.350Z,11.83
2023-02-06T17:11:26.764Z,11.68
2023-02-06T17:14:29.752Z,11.48
2023-02-06T17:17:33.389Z,11.77
2023-02-06T17:20:38.926Z,11.10
2023-02-06T17:23:46.246Z,13.53
2023-02-06T17:26:50.680Z,11.43
2023-02-06T17:29:53.968Z,13.80
2023-02-06T17:32:57.170Z,13.65
2023-02-06T17:36:00.983Z,14.48
2023-02-06T17:39:04.178Z,13.53
2023-02-06T17:42:08.812Z,15.25
2023-02-06T17:45:12.024Z,16.27
2023-02-06T17:48:15.436Z,16.05
2023-02-06T17:51:18.527Z,14.60
2023-02-06T17:54:22.085Z,18.47
2023-02-06T17:57:25.592Z,16.17
2023-02-06T18:00:29.255Z,16.75
2023-02-06T18:03:32.354Z,17.27
2023-02-06T18:06:37.629Z,19.25
2023-02-06T18:09:42.202Z,19.03
2023-02-06T18:12:45.679Z,21.77
2023-02-06T18:15:54.694Z,18.58
2023-02-06T18:18:59.500Z,19.45
2023-02-06T18:22:03.278Z,18.80
2023-02-06T18:25:09.094Z,16.83
2023-02-06T18:28:15.240Z,20.77
2023-02-06T18:31:26.737Z,18.25
2023-02-06T18:34:30.156Z,17.45
2023-02-06T18:37:36.887Z,16.92
2023-02-06T18:40:45.846Z,17.00
2023-02-06T18:43:49.777Z,16.25
2023-02-06T18:46:54.411Z,17.88
2023-02-06T18:49:58.741Z,16.75
2023-02-06T18:53:03.344Z,16.50
2023-02-06T18:56:07.720Z,17.13
2023-02-06T18:59:12.247Z,17.77
2023-02-06T19:02:19.159Z,19.45
2023-02-06T19:05:23.205Z,17.08
2023-02-06T19:08:28.674Z,17.60
2023-02-06T19:11:33.266Z,17.33
2023-02-06T19:14:39.361Z,19.08
2023-02-06T19:17:45.425Z,17.13
2023-02-06T19:20:49.989Z,17.75
2023-02-06T19:23:58.872Z,17.98
2023-02-06T19:27:03.770Z,16.80
2023-02-06T19:30:09.162Z,17.88
2023-02-06T19:33:16.982Z,16.70
2023-02-06T19:36:22.671Z,17.13
2023-02-06T19:39:27.127Z,16.92
2023-02-06T19:42:33.751Z,18.87
2023-02-06T19:45:39.830Z,17.17
2023-02-06T19:48:47.391Z,16.73
2023-02-06T19:51:53.420Z,17.08
2023-02-06T19:54:57.848Z,18.10
2023-02-06T19:58:20.487Z,16.87
2023-02-06T20:01:26.315Z,16.88
2023-02-06T20:04:38.665Z,16.02
2023-02-06T20:07:43.255Z,17.30
2023-02-06T20:10:49.178Z,18.13
2023-02-06T20:13:56.181Z,17.07
2023-02-06T20:17:01.716Z,16.38
2023-02-06T20:20:07.139Z,15.82
2023-02-06T20:23:13.517Z,17.75
2023-02-06T20:26:19.423Z,16.13
2023-02-06T20:29:30.245Z,15.90
2023-02-06T20:32:34.748Z,17.58
2023-02-06T20:35:45.391Z,16.35
2023-02-06T20:38:52.005Z,15.32
2023-02-06T20:41:56.479Z,17.35
2023-02-06T20:45:01.858Z,15.00
2023-02-06T20:48:07.556Z,14.27
2023-02-06T20:51:12.746Z,16.70
2023-02-06T20:54:18.232Z,15.13
2023-02-06T20:57:23.401Z,17.15
2023-02-06T21:00:27.194Z,15.67
2023-02-06T21:03:31.051Z,16.23
2023-02-06T21:06:37.122Z,14.95
2023-02-06T21:09:41.678Z,15.48
2023-02-06T21:12:46.118Z,15.18
2023-02-06T21:15:53.290Z,14.77
2023-02-06T21:18:57.668Z,15.65
2023-02-06T21:22:01.172Z,15.40
2023-02-06T21:25:05.410Z,15.18
2023-02-06T21:28:08.566Z,16.25
2023-02-06T21:31:17.755Z,14.50
2023-02-06T21:34:23.066Z,15.80
2023-02-06T21:37:25.976Z,16.50
2023-02-06T21:40:28.850Z,16.85
2023-02-06T21:43:32.019Z,15.00
2023-02-06T21:46:34.943Z,14.87
2023-02-06T21:49:37.863Z,15.25
2023-02-06T21:52:40.605Z,14.05
2023-02-06T21:55:44.895Z,14.80
2023-02-06T21:58:49.205Z,18.08
2023-02-06T22:01:54.625Z,13.50
2023-02-06T22:05:00.440Z,13.32
2023-02-06T22:08:03.569Z,16.05
2023-02-06T22:11:17.862Z,14.68
2023-02-06T22:14:20.605Z,13.57
2023-02-06T22:17:23.298Z,17.23
2023-02-06T22:20:26.284Z,14.98
2023-02-06T22:23:29.057Z,19.67
2023-02-06T22:26:33.992Z,14.20
2023-02-06T22:29:36.927Z,14.13
2023-02-06T22:32:40.587Z,13.80
2023-02-06T22:35:43.498Z,12.90
2023-02-06T22:38:48.360Z,13.00
2023-02-06T22:41:51.944Z,13.90
2023-02-06T22:44:54.954Z,14.32
2023-02-06T22:47:57.832Z,13.83
2023-02-06T22:54:30.495Z,12.90
2023-02-06T22:57:35.355Z,16.05
2023-02-06T23:00:38.833Z,15.07
2023-02-06T23:03:42.016Z,13.63
2023-02-06T23:06:45.567Z,13.52
2023-02-06T23:09:48.413Z,12.57
2023-02-06T23:12:51.242Z,12.35
2023-02-06T23:15:57.797Z,13.60
2023-02-06T23:19:04.248Z,13.50
2023-02-06T23:22:08.074Z,12.48
2023-02-06T23:25:10.773Z,15.35
2023-02-06T23:28:14.629Z,14.20
2023-02-06T23:31:17.936Z,13.40
2023-02-06T23:34:24.222Z,13.40
2023-02-06T23:37:26.996Z,12.82
2023-02-06T23:40:31.011Z,12.88
2023-02-06T23:43:34.824Z,12.52
2023-02-06T23:46:39.341Z,12.45
2023-02-06T23:49:42.208Z,13.23
2023-02-06T23:52:45.193Z,13.75
2023-02-06T23:55:48.067Z,11.75
2023-02-06T23:58:51.900Z,15.00
